sensor_id;sensor_type;location;lat;lon;timestamp;P1;durP1;ratioP1;P2;durP2;ratioP2
7693;SDS011;3889;48.162;11.510;2022-11-20T00:00:54;3.17;;;2.88;;
7693;SDS011;3889;48.162;11.510;2022-11-20T00:03:22;3.47;;;3.05;;
7693;SDS011;3889;48.162;11.510;2022-11-20T00:05:50;3.72;;;3.35;;
7693;SDS011;3889;48.162;11.510;2022-11-20T00:08:18;3.30;;;3.03;;
7693;SDS011;3889;48.162;11.510;2022-11-20T00:10:47;3.50;;;3.20;;
7693;SDS011;3889;48.162;11.510;2022-11-20T00:13:15;3.38;;;3.08;;
7693;SDS011;3889;48.162;11.510;2022-11-20T00:15:43;3.75;;;3.17;;
7693;SDS011;3889;48.162;11.510;2022-11-20T00:18:11;3.73;;;3.30;;
7693;SDS011;3889;48.162;11.510;2022-11-20T00:20:39;3.50;;;3.20;;
7693;SDS011;3889;48.162;11.510;2022-11-20T00:23:06;3.63;;;2.78;;
7693;SDS011;3889;48.162;11.510;2022-11-20T00:25:34;3.60;;;3.10;;
7693;SDS011;3889;48.162;11.510;2022-11-20T00:28:03;3.30;;;3.00;;
7693;SDS011;3889;48.162;11.510;2022-11-20T00:30:31;3.50;;;3.20;;
7693;SDS011;3889;48.162;11.510;2022-11-20T00:32:59;4.27;;;3.40;;
7693;SDS011;3889;48.162;11.510;2022-11-20T00:35:27;3.85;;;3.42;;
7693;SDS011;3889;48.162;11.510;2022-11-20T00:37:55;4.03;;;3.30;;
7693;SDS011;3889;48.162;11.510;2022-11-20T00:40:22;3.67;;;3.33;;
7693;SDS011;3889;48.162;11.510;2022-11-20T00:42:50;3.90;;;3.50;;
7693;SDS011;3889;48.162;11.510;2022-11-20T00:45:19;3.83;;;3.47;;
7693;SDS011;3889;48.162;11.510;2022-11-20T00:47:47;3.60;;;3.30;;
7693;SDS011;3889;48.162;11.510;2022-11-20T00:50:15;3.70;;;3.33;;
7693;SDS011;3889;48.162;11.510;2022-11-20T00:52:43;3.83;;;3.40;;
7693;SDS011;3889;48.162;11.510;2022-11-20T00:55:11;3.70;;;3.40;;
7693;SDS011;3889;48.162;11.510;2022-11-20T00:57:39;4.00;;;3.60;;
7693;SDS011;3889;48.162;11.510;2022-11-20T01:00:07;3.83;;;3.40;;
7693;SDS011;3889;48.162;11.510;2022-11-20T01:02:37;3.70;;;3.40;;
7693;SDS011;3889;48.162;11.510;2022-11-20T01:05:04;4.07;;;3.65;;
7693;SDS011;3889;48.162;11.510;2022-11-20T01:07:32;3.30;;;3.10;;
7693;SDS011;3889;48.162;11.510;2022-11-20T01:10:00;3.80;;;3.50;;
7693;SDS011;3889;48.162;11.510;2022-11-20T01:12:30;3.92;;;3.65;;
7693;SDS011;3889;48.162;11.510;2022-11-20T01:14:58;4.38;;;3.97;;
7693;SDS011;3889;48.162;11.510;2022-11-20T01:17:26;4.22;;;3.70;;
7693;SDS011;3889;48.162;11.510;2022-11-20T01:19:55;3.95;;;3.60;;
7693;SDS011;3889;48.162;11.510;2022-11-20T01:22:22;4.07;;;3.67;;
7693;SDS011;3889;48.162;11.510;2022-11-20T01:24:50;3.65;;;3.25;;
7693;SDS011;3889;48.162;11.510;2022-11-20T01:27:18;3.77;;;3.30;;
7693;SDS011;3889;48.162;11.510;2022-11-20T01:29:46;3.75;;;3.45;;
7693;SDS011;3889;48.162;11.510;2022-11-20T01:32:14;4.10;;;3.42;;
7693;SDS011;3889;48.162;11.510;2022-11-20T01:34:42;4.05;;;3.58;;
7693;SDS011;3889;48.162;11.510;2022-11-20T01:37:11;3.70;;;3.40;;
7693;SDS011;3889;48.162;11.510;2022-11-20T01:39:38;4.03;;;3.22;;
7693;SDS011;3889;48.162;11.510;2022-11-20T01:42:07;3.88;;;3.40;;
7693;SDS011;3889;48.162;11.510;2022-11-20T01:44:53;3.53;;;3.22;;
7693;SDS011;3889;48.162;11.510;2022-11-20T01:47:29;3.63;;;3.15;;
7693;SDS011;3889;48.162;11.510;2022-11-20T01:50:05;3.60;;;3.25;;
7693;SDS011;3889;48.162;11.510;2022-11-20T01:52:39;3.60;;;3.30;;
7693;SDS011;3889;48.162;11.510;2022-11-20T01:55:11;4.30;;;3.35;;
7693;SDS011;3889;48.162;11.510;2022-11-20T01:57:42;3.22;;;2.92;;
7693;SDS011;3889;48.162;11.510;2022-11-20T02:00:13;3.63;;;3.33;;
7693;SDS011;3889;48.162;11.510;2022-11-20T02:02:44;3.80;;;3.40;;
7693;SDS011;3889;48.162;11.510;2022-11-20T02:05:17;3.08;;;2.88;;
7693;SDS011;3889;48.162;11.510;2022-11-20T02:07:51;3.38;;;3.17;;
7693;SDS011;3889;48.162;11.510;2022-11-20T02:10:21;3.50;;;3.20;;
7693;SDS011;3889;48.162;11.510;2022-11-20T02:12:49;3.25;;;2.95;;
7693;SDS011;3889;48.162;11.510;2022-11-20T02:15:34;3.70;;;3.08;;
7693;SDS011;3889;48.162;11.510;2022-11-20T02:18:02;3.40;;;3.10;;
7693;SDS011;3889;48.162;11.510;2022-11-20T02:20:30;3.65;;;3.15;;
7693;SDS011;3889;48.162;11.510;2022-11-20T02:23:02;3.47;;;3.13;;
7693;SDS011;3889;48.162;11.510;2022-11-20T02:25:37;3.70;;;3.40;;
7693;SDS011;3889;48.162;11.510;2022-11-20T02:28:06;3.75;;;3.45;;
7693;SDS011;3889;48.162;11.510;2022-11-20T02:30:34;4.32;;;3.67;;
7693;SDS011;3889;48.162;11.510;2022-11-20T02:33:02;3.83;;;3.53;;
7693;SDS011;3889;48.162;11.510;2022-11-20T02:35:41;3.80;;;3.50;;
7693;SDS011;3889;48.162;11.510;2022-11-20T02:38:10;4.22;;;3.75;;
7693;SDS011;3889;48.162;11.510;2022-11-20T02:40:40;3.85;;;3.55;;
7693;SDS011;3889;48.162;11.510;2022-11-20T02:43:08;4.13;;;3.72;;
7693;SDS011;3889;48.162;11.510;2022-11-20T02:45:36;4.20;;;3.90;;
7693;SDS011;3889;48.162;11.510;2022-11-20T02:48:05;4.20;;;3.80;;
7693;SDS011;3889;48.162;11.510;2022-11-20T02:50:36;4.43;;;4.03;;
7693;SDS011;3889;48.162;11.510;2022-11-20T02:53:04;4.40;;;4.00;;
7693;SDS011;3889;48.162;11.510;2022-11-20T02:55:32;3.80;;;3.50;;
7693;SDS011;3889;48.162;11.510;2022-11-20T02:58:02;3.95;;;3.65;;
7693;SDS011;3889;48.162;11.510;2022-11-20T03:00:29;4.40;;;3.95;;
7693;SDS011;3889;48.162;11.510;2022-11-20T03:02:58;3.90;;;3.50;;
7693;SDS011;3889;48.162;11.510;2022-11-20T03:05:25;4.07;;;3.70;;
7693;SDS011;3889;48.162;11.510;2022-11-20T03:07:53;3.97;;;3.67;;
7693;SDS011;3889;48.162;11.510;2022-11-20T03:10:21;4.38;;;3.80;;
7693;SDS011;3889;48.162;11.510;2022-11-20T03:12:52;4.18;;;3.78;;
7693;SDS011;3889;48.162;11.510;2022-11-20T03:15:21;3.75;;;3.45;;
7693;SDS011;3889;48.162;11.510;2022-11-20T03:17:52;3.85;;;3.55;;
7693;SDS011;3889;48.162;11.510;2022-11-20T03:20:21;4.18;;;3.40;;
7693;SDS011;3889;48.162;11.510;2022-11-20T03:22:49;3.75;;;3.38;;
7693;SDS011;3889;48.162;11.510;2022-11-20T03:25:16;3.70;;;3.40;;
7693;SDS011;3889;48.162;11.510;2022-11-20T03:27:44;4.78;;;3.90;;
7693;SDS011;3889;48.162;11.510;2022-11-20T03:30:12;3.38;;;3.15;;
7693;SDS011;3889;48.162;11.510;2022-11-20T03:32:42;3.90;;;3.50;;
7693;SDS011;3889;48.162;11.510;2022-11-20T03:35:10;4.40;;;3.42;;
7693;SDS011;3889;48.162;11.510;2022-11-20T03:37:38;3.90;;;3.17;;
7693;SDS011;3889;48.162;11.510;2022-11-20T03:40:06;3.38;;;3.13;;
7693;SDS011;3889;48.162;11.510;2022-11-20T03:42:34;3.80;;;3.30;;
7693;SDS011;3889;48.162;11.510;2022-11-20T03:45:14;3.50;;;3.20;;
7693;SDS011;3889;48.162;11.510;2022-11-20T03:47:44;3.80;;;3.40;;
7693;SDS011;3889;48.162;11.510;2022-11-20T03:50:13;3.63;;;3.33;;
7693;SDS011;3889;48.162;11.510;2022-11-20T03:52:41;3.70;;;3.40;;
7693;SDS011;3889;48.162;11.510;2022-11-20T03:55:09;4.28;;;3.70;;
7693;SDS011;3889;48.162;11.510;2022-11-20T03:57:37;3.50;;;3.20;;
7693;SDS011;3889;48.162;11.510;2022-11-20T04:00:05;3.50;;;3.20;;
7693;SDS011;3889;48.162;11.510;2022-11-20T04:02:33;3.65;;;3.30;;
7693;SDS011;3889;48.162;11.510;2022-11-20T04:05:03;4.07;;;3.33;;
7693;SDS011;3889;48.162;11.510;2022-11-20T04:07:33;3.80;;;3.40;;
7693;SDS011;3889;48.162;11.510;2022-11-20T04:10:01;3.80;;;3.40;;
7693;SDS011;3889;48.162;11.510;2022-11-20T04:12:31;3.88;;;3.20;;
7693;SDS011;3889;48.162;11.510;2022-11-20T04:15:00;3.88;;;3.47;;
7693;SDS011;3889;48.162;11.510;2022-11-20T04:17:28;3.72;;;3.10;;
7693;SDS011;3889;48.162;11.510;2022-11-20T04:19:56;3.50;;;3.20;;
7693;SDS011;3889;48.162;11.510;2022-11-20T04:22:25;3.55;;;3.05;;
7693;SDS011;3889;48.162;11.510;2022-11-20T04:24:53;3.72;;;3.42;;
7693;SDS011;3889;48.162;11.510;2022-11-20T04:27:20;3.78;;;3.47;;
7693;SDS011;3889;48.162;11.510;2022-11-20T04:29:48;3.78;;;3.40;;
7693;SDS011;3889;48.162;11.510;2022-11-20T04:32:16;3.90;;;3.50;;
7693;SDS011;3889;48.162;11.510;2022-11-20T04:34:44;3.38;;;3.08;;
7693;SDS011;3889;48.162;11.510;2022-11-20T04:37:11;3.90;;;3.50;;
7693;SDS011;3889;48.162;11.510;2022-11-20T04:39:41;3.30;;;3.00;;
7693;SDS011;3889;48.162;11.510;2022-11-20T04:42:09;4.20;;;3.58;;
7693;SDS011;3889;48.162;11.510;2022-11-20T04:44:55;3.38;;;3.08;;
7693;SDS011;3889;48.162;11.510;2022-11-20T04:47:24;3.50;;;3.13;;
7693;SDS011;3889;48.162;11.510;2022-11-20T04:49:51;3.50;;;3.20;;
7693;SDS011;3889;48.162;11.510;2022-11-20T04:52:19;3.50;;;3.20;;
7693;SDS011;3889;48.162;11.510;2022-11-20T04:54:49;3.45;;;3.15;;
7693;SDS011;3889;48.162;11.510;2022-11-20T04:57:18;3.50;;;3.22;;
7693;SDS011;3889;48.162;11.510;2022-11-20T04:59:46;3.53;;;3.22;;
7693;SDS011;3889;48.162;11.510;2022-11-20T05:02:14;4.10;;;3.70;;
7693;SDS011;3889;48.162;11.510;2022-11-20T05:04:42;3.90;;;3.47;;
7693;SDS011;3889;48.162;11.510;2022-11-20T05:07:10;3.80;;;3.50;;
7693;SDS011;3889;48.162;11.510;2022-11-20T05:09:38;3.63;;;3.33;;
7693;SDS011;3889;48.162;11.510;2022-11-20T05:12:08;3.90;;;3.60;;
7693;SDS011;3889;48.162;11.510;2022-11-20T05:14:36;3.45;;;3.15;;
7693;SDS011;3889;48.162;11.510;2022-11-20T05:17:04;3.88;;;3.58;;
7693;SDS011;3889;48.162;11.510;2022-11-20T05:19:32;3.35;;;3.08;;
7693;SDS011;3889;48.162;11.510;2022-11-20T05:21:59;3.90;;;3.60;;
7693;SDS011;3889;48.162;11.510;2022-11-20T05:24:27;3.70;;;3.30;;
7693;SDS011;3889;48.162;11.510;2022-11-20T05:26:55;4.00;;;3.40;;
7693;SDS011;3889;48.162;11.510;2022-11-20T05:29:24;4.30;;;3.90;;
7693;SDS011;3889;48.162;11.510;2022-11-20T05:31:52;4.00;;;3.08;;
7693;SDS011;3889;48.162;11.510;2022-11-20T05:34:20;3.65;;;3.35;;
7693;SDS011;3889;48.162;11.510;2022-11-20T05:36:48;3.70;;;3.40;;
7693;SDS011;3889;48.162;11.510;2022-11-20T05:39:16;3.50;;;3.30;;
7693;SDS011;3889;48.162;11.510;2022-11-20T05:41:44;4.65;;;3.45;;
7693;SDS011;3889;48.162;11.510;2022-11-20T05:44:12;4.00;;;3.60;;
7693;SDS011;3889;48.162;11.510;2022-11-20T05:46:41;4.00;;;3.28;;
7693;SDS011;3889;48.162;11.510;2022-11-20T05:49:09;3.70;;;3.40;;
7693;SDS011;3889;48.162;11.510;2022-11-20T05:51:37;4.03;;;3.53;;
7693;SDS011;3889;48.162;11.510;2022-11-20T05:54:05;3.67;;;3.28;;
7693;SDS011;3889;48.162;11.510;2022-11-20T05:56:33;4.30;;;3.90;;
7693;SDS011;3889;48.162;11.510;2022-11-20T05:59:00;4.22;;;3.25;;
7693;SDS011;3889;48.162;11.510;2022-11-20T06:01:28;3.70;;;3.40;;
7693;SDS011;3889;48.162;11.510;2022-11-20T06:03:57;3.58;;;3.28;;
7693;SDS011;3889;48.162;11.510;2022-11-20T06:06:25;3.80;;;3.50;;
7693;SDS011;3889;48.162;11.510;2022-11-20T06:08:53;3.47;;;3.17;;
7693;SDS011;3889;48.162;11.510;2022-11-20T06:11:22;3.83;;;3.53;;
7693;SDS011;3889;48.162;11.510;2022-11-20T06:13:50;4.50;;;3.60;;
7693;SDS011;3889;48.162;11.510;2022-11-20T06:16:18;3.70;;;3.40;;
7693;SDS011;3889;48.162;11.510;2022-11-20T06:18:47;3.63;;;3.33;;
7693;SDS011;3889;48.162;11.510;2022-11-20T06:21:17;3.70;;;3.40;;
7693;SDS011;3889;48.162;11.510;2022-11-20T06:23:46;3.45;;;3.15;;
7693;SDS011;3889;48.162;11.510;2022-11-20T06:26:15;3.50;;;3.17;;
7693;SDS011;3889;48.162;11.510;2022-11-20T06:28:44;3.55;;;3.25;;
7693;SDS011;3889;48.162;11.510;2022-11-20T06:31:13;4.28;;;3.88;;
7693;SDS011;3889;48.162;11.510;2022-11-20T06:33:43;3.63;;;3.30;;
7693;SDS011;3889;48.162;11.510;2022-11-20T06:36:12;3.67;;;3.38;;
7693;SDS011;3889;48.162;11.510;2022-11-20T06:38:43;3.10;;;2.80;;
7693;SDS011;3889;48.162;11.510;2022-11-20T06:41:11;2.78;;;2.58;;
7693;SDS011;3889;48.162;11.510;2022-11-20T06:43:41;3.20;;;2.70;;
7693;SDS011;3889;48.162;11.510;2022-11-20T06:46:09;3.25;;;2.95;;
7693;SDS011;3889;48.162;11.510;2022-11-20T06:48:38;2.85;;;2.65;;
7693;SDS011;3889;48.162;11.510;2022-11-20T06:51:07;3.05;;;2.80;;
7693;SDS011;3889;48.162;11.510;2022-11-20T06:53:35;2.90;;;2.60;;
7693;SDS011;3889;48.162;11.510;2022-11-20T06:56:06;2.85;;;2.58;;
7693;SDS011;3889;48.162;11.510;2022-11-20T06:58:35;2.78;;;2.38;;
7693;SDS011;3889;48.162;11.510;2022-11-20T07:01:03;2.70;;;2.50;;
7693;SDS011;3889;48.162;11.510;2022-11-20T07:03:32;2.63;;;2.40;;
7693;SDS011;3889;48.162;11.510;2022-11-20T07:06:00;2.67;;;2.40;;
7693;SDS011;3889;48.162;11.510;2022-11-20T07:08:29;3.08;;;2.30;;
7693;SDS011;3889;48.162;11.510;2022-11-20T07:10:58;2.65;;;2.45;;
7693;SDS011;3889;48.162;11.510;2022-11-20T07:13:28;2.45;;;2.25;;
7693;SDS011;3889;48.162;11.510;2022-11-20T07:15:58;2.60;;;2.40;;
7693;SDS011;3889;48.162;11.510;2022-11-20T07:18:27;2.53;;;2.33;;
7693;SDS011;3889;48.162;11.510;2022-11-20T07:20:55;3.03;;;2.50;;
7693;SDS011;3889;48.162;11.510;2022-11-20T07:23:23;2.63;;;2.42;;
7693;SDS011;3889;48.162;11.510;2022-11-20T07:25:51;3.03;;;2.70;;
7693;SDS011;3889;48.162;11.510;2022-11-20T07:28:18;2.85;;;2.40;;
7693;SDS011;3889;48.162;11.510;2022-11-20T07:30:50;3.00;;;2.53;;
7693;SDS011;3889;48.162;11.510;2022-11-20T07:33:18;2.80;;;2.20;;
7693;SDS011;3889;48.162;11.510;2022-11-20T07:35:46;3.13;;;2.40;;
7693;SDS011;3889;48.162;11.510;2022-11-20T07:38:14;2.90;;;2.53;;
7693;SDS011;3889;48.162;11.510;2022-11-20T07:40:42;3.15;;;2.78;;
7693;SDS011;3889;48.162;11.510;2022-11-20T07:43:10;3.28;;;2.78;;
7693;SDS011;3889;48.162;11.510;2022-11-20T07:45:38;3.50;;;2.95;;
7693;SDS011;3889;48.162;11.510;2022-11-20T07:48:07;3.10;;;2.80;;
7693;SDS011;3889;48.162;11.510;2022-11-20T07:50:35;3.25;;;2.83;;
7693;SDS011;3889;48.162;11.510;2022-11-20T07:53:03;3.30;;;3.00;;
7693;SDS011;3889;48.162;11.510;2022-11-20T07:55:32;3.10;;;2.80;;
7693;SDS011;3889;48.162;11.510;2022-11-20T07:58:00;3.30;;;3.00;;
7693;SDS011;3889;48.162;11.510;2022-11-20T08:00:27;3.83;;;2.80;;
7693;SDS011;3889;48.162;11.510;2022-11-20T08:02:55;3.85;;;3.20;;
7693;SDS011;3889;48.162;11.510;2022-11-20T08:05:24;3.45;;;3.00;;
7693;SDS011;3889;48.162;11.510;2022-11-20T08:07:52;3.35;;;3.03;;
7693;SDS011;3889;48.162;11.510;2022-11-20T08:10:20;3.30;;;3.00;;
7693;SDS011;3889;48.162;11.510;2022-11-20T08:12:48;3.45;;;3.15;;
7693;SDS011;3889;48.162;11.510;2022-11-20T08:15:35;3.30;;;3.00;;
7693;SDS011;3889;48.162;11.510;2022-11-20T08:18:05;3.10;;;2.80;;
7693;SDS011;3889;48.162;11.510;2022-11-20T08:20:55;3.10;;;2.80;;
7693;SDS011;3889;48.162;11.510;2022-11-20T08:23:23;2.83;;;2.63;;
7693;SDS011;3889;48.162;11.510;2022-11-20T08:25:51;3.00;;;2.80;;
7693;SDS011;3889;48.162;11.510;2022-11-20T08:28:19;3.75;;;2.95;;
7693;SDS011;3889;48.162;11.510;2022-11-20T08:30:47;3.03;;;2.78;;
7693;SDS011;3889;48.162;11.510;2022-11-20T08:33:16;3.13;;;2.90;;
7693;SDS011;3889;48.162;11.510;2022-11-20T08:35:44;2.67;;;2.47;;
7693;SDS011;3889;48.162;11.510;2022-11-20T08:38:14;3.20;;;2.90;;
7693;SDS011;3889;48.162;11.510;2022-11-20T08:40:42;2.80;;;2.60;;
7693;SDS011;3889;48.162;11.510;2022-11-20T08:43:31;2.88;;;2.58;;
7693;SDS011;3889;48.162;11.510;2022-11-20T08:45:59;2.63;;;2.42;;
7693;SDS011;3889;48.162;11.510;2022-11-20T08:48:27;2.40;;;2.20;;
7693;SDS011;3889;48.162;11.510;2022-11-20T08:50:57;2.60;;;2.40;;
7693;SDS011;3889;48.162;11.510;2022-11-20T08:53:27;3.10;;;2.63;;
7693;SDS011;3889;48.162;11.510;2022-11-20T08:55:56;2.93;;;2.67;;
7693;SDS011;3889;48.162;11.510;2022-11-20T08:58:24;2.85;;;2.53;;
7693;SDS011;3889;48.162;11.510;2022-11-20T09:00:52;2.97;;;2.55;;
7693;SDS011;3889;48.162;11.510;2022-11-20T09:03:20;3.25;;;2.42;;
7693;SDS011;3889;48.162;11.510;2022-11-20T09:05:48;2.50;;;2.30;;
7693;SDS011;3889;48.162;11.510;2022-11-20T09:08:16;2.70;;;2.50;;
7693;SDS011;3889;48.162;11.510;2022-11-20T09:10:45;2.88;;;2.67;;
7693;SDS011;3889;48.162;11.510;2022-11-20T09:13:17;3.20;;;2.65;;
7693;SDS011;3889;48.162;11.510;2022-11-20T09:15:45;2.88;;;2.58;;
7693;SDS011;3889;48.162;11.510;2022-11-20T09:18:13;2.90;;;2.58;;
7693;SDS011;3889;48.162;11.510;2022-11-20T09:20:41;4.32;;;2.50;;
7693;SDS011;3889;48.162;11.510;2022-11-20T09:23:10;2.70;;;2.43;;
7693;SDS011;3889;48.162;11.510;2022-11-20T09:25:38;2.95;;;2.65;;
7693;SDS011;3889;48.162;11.510;2022-11-20T09:28:07;2.40;;;2.20;;
7693;SDS011;3889;48.162;11.510;2022-11-20T09:30:35;3.35;;;2.17;;
7693;SDS011;3889;48.162;11.510;2022-11-20T09:33:03;2.63;;;2.42;;
7693;SDS011;3889;48.162;11.510;2022-11-20T09:35:32;2.55;;;2.20;;
7693;SDS011;3889;48.162;11.510;2022-11-20T09:38:04;6.30;;;4.90;;
7693;SDS011;3889;48.162;11.510;2022-11-20T09:40:34;2.50;;;2.13;;
7693;SDS011;3889;48.162;11.510;2022-11-20T09:43:07;2.35;;;2.15;;
7693;SDS011;3889;48.162;11.510;2022-11-20T09:45:45;2.40;;;2.20;;
7693;SDS011;3889;48.162;11.510;2022-11-20T09:48:29;3.47;;;2.00;;
7693;SDS011;3889;48.162;11.510;2022-11-20T09:51:08;2.35;;;2.15;;
7693;SDS011;3889;48.162;11.510;2022-11-20T09:53:46;2.30;;;2.10;;
7693;SDS011;3889;48.162;11.510;2022-11-20T09:56:24;2.97;;;2.28;;
7693;SDS011;3889;48.162;11.510;2022-11-20T09:58:55;4.82;;;3.20;;
7693;SDS011;3889;48.162;11.510;2022-11-20T10:01:29;2.28;;;2.08;;
7693;SDS011;3889;48.162;11.510;2022-11-20T10:04:00;2.43;;;1.97;;
7693;SDS011;3889;48.162;11.510;2022-11-20T10:06:31;2.33;;;2.00;;
7693;SDS011;3889;48.162;11.510;2022-11-20T10:09:02;2.38;;;2.10;;
7693;SDS011;3889;48.162;11.510;2022-11-20T10:11:46;1.95;;;1.83;;
7693;SDS011;3889;48.162;11.510;2022-11-20T10:14:24;2.33;;;1.80;;
7693;SDS011;3889;48.162;11.510;2022-11-20T10:17:01;2.30;;;1.80;;
7693;SDS011;3889;48.162;11.510;2022-11-20T10:19:40;2.10;;;1.80;;
7693;SDS011;3889;48.162;11.510;2022-11-20T10:22:29;2.80;;;2.10;;
7693;SDS011;3889;48.162;11.510;2022-11-20T10:25:05;2.72;;;1.90;;
7693;SDS011;3889;48.162;11.510;2022-11-20T10:27:53;2.10;;;1.90;;
7693;SDS011;3889;48.162;11.510;2022-11-20T10:30:35;2.55;;;2.00;;
7693;SDS011;3889;48.162;11.510;2022-11-20T10:33:06;3.07;;;2.20;;
7693;SDS011;3889;48.162;11.510;2022-11-20T10:35:43;2.30;;;1.98;;
7693;SDS011;3889;48.162;11.510;2022-11-20T10:38:14;1.95;;;1.80;;
7693;SDS011;3889;48.162;11.510;2022-11-20T10:40:48;4.03;;;2.83;;
7693;SDS011;3889;48.162;11.510;2022-11-20T10:43:21;2.40;;;1.88;;
7693;SDS011;3889;48.162;11.510;2022-11-20T10:45:58;2.88;;;2.08;;
7693;SDS011;3889;48.162;11.510;2022-11-20T10:48:29;2.55;;;1.80;;
7693;SDS011;3889;48.162;11.510;2022-11-20T10:51:02;2.10;;;1.60;;
7693;SDS011;3889;48.162;11.510;2022-11-20T10:53:45;7.07;;;4.20;;
7693;SDS011;3889;48.162;11.510;2022-11-20T10:56:21;2.13;;;1.92;;
7693;SDS011;3889;48.162;11.510;2022-11-20T10:59:02;2.00;;;1.80;;
7693;SDS011;3889;48.162;11.510;2022-11-20T11:01:51;1.90;;;1.70;;
7693;SDS011;3889;48.162;11.510;2022-11-20T11:04:23;2.65;;;1.73;;
7693;SDS011;3889;48.162;11.510;2022-11-20T11:07:06;1.77;;;1.60;;
7693;SDS011;3889;48.162;11.510;2022-11-20T11:09:38;2.47;;;1.58;;
7693;SDS011;3889;48.162;11.510;2022-11-20T11:12:10;1.98;;;1.77;;
7693;SDS011;3889;48.162;11.510;2022-11-20T11:14:41;1.60;;;1.50;;
7693;SDS011;3889;48.162;11.510;2022-11-20T11:17:22;1.70;;;1.55;;
7693;SDS011;3889;48.162;11.510;2022-11-20T11:19:59;2.33;;;1.70;;
7693;SDS011;3889;48.162;11.510;2022-11-20T11:22:30;1.60;;;1.50;;
7693;SDS011;3889;48.162;11.510;2022-11-20T11:24:59;2.55;;;1.77;;
7693;SDS011;3889;48.162;11.510;2022-11-20T11:27:28;2.17;;;1.58;;
7693;SDS011;3889;48.162;11.510;2022-11-20T11:30:03;3.00;;;1.60;;
7693;SDS011;3889;48.162;11.510;2022-11-20T11:32:42;3.10;;;1.60;;
7693;SDS011;3889;48.162;11.510;2022-11-20T11:35:21;1.88;;;1.52;;
7693;SDS011;3889;48.162;11.510;2022-11-20T11:37:51;2.30;;;1.63;;
7693;SDS011;3889;48.162;11.510;2022-11-20T11:40:21;2.00;;;1.80;;
7693;SDS011;3889;48.162;11.510;2022-11-20T11:42:54;2.28;;;1.73;;
7693;SDS011;3889;48.162;11.510;2022-11-20T11:45:24;2.72;;;1.90;;
7693;SDS011;3889;48.162;11.510;2022-11-20T11:47:53;2.50;;;1.67;;
7693;SDS011;3889;48.162;11.510;2022-11-20T11:50:24;2.25;;;1.48;;
7693;SDS011;3889;48.162;11.510;2022-11-20T11:52:58;1.80;;;1.70;;
7693;SDS011;3889;48.162;11.510;2022-11-20T11:55:36;1.98;;;1.67;;
7693;SDS011;3889;48.162;11.510;2022-11-20T11:58:11;2.05;;;1.55;;
7693;SDS011;3889;48.162;11.510;2022-11-20T12:00:49;2.03;;;1.42;;
7693;SDS011;3889;48.162;11.510;2022-11-20T12:03:24;2.30;;;1.90;;
7693;SDS011;3889;48.162;11.510;2022-11-20T12:05:57;1.98;;;1.73;;
7693;SDS011;3889;48.162;11.510;2022-11-20T12:08:30;1.87;;;1.40;;
7693;SDS011;3889;48.162;11.510;2022-11-20T12:11:04;1.45;;;1.33;;
7693;SDS011;3889;48.162;11.510;2022-11-20T12:13:40;1.67;;;1.48;;
7693;SDS011;3889;48.162;11.510;2022-11-20T12:16:14;3.40;;;2.30;;
7693;SDS011;3889;48.162;11.510;2022-11-20T12:18:46;1.80;;;1.63;;
7693;SDS011;3889;48.162;11.510;2022-11-20T12:21:18;1.77;;;1.67;;
7693;SDS011;3889;48.162;11.510;2022-11-20T12:23:53;2.38;;;1.70;;
7693;SDS011;3889;48.162;11.510;2022-11-20T12:26:58;1.73;;;1.63;;
7693;SDS011;3889;48.162;11.510;2022-11-20T12:29:41;2.45;;;2.03;;
7693;SDS011;3889;48.162;11.510;2022-11-20T12:35:13;2.55;;;2.35;;
7693;SDS011;3889;48.162;11.510;2022-11-20T12:37:59;2.00;;;1.80;;
7693;SDS011;3889;48.162;11.510;2022-11-20T12:40:49;2.03;;;1.90;;
7693;SDS011;3889;48.162;11.510;2022-11-20T12:43:23;2.00;;;1.90;;
7693;SDS011;3889;48.162;11.510;2022-11-20T12:46:14;2.72;;;1.90;;
7693;SDS011;3889;48.162;11.510;2022-11-20T12:48:51;2.38;;;1.92;;
7693;SDS011;3889;48.162;11.510;2022-11-20T12:54:43;2.10;;;1.75;;
7693;SDS011;3889;48.162;11.510;2022-11-20T12:57:22;1.90;;;1.80;;
7693;SDS011;3889;48.162;11.510;2022-11-20T13:00:03;1.90;;;1.80;;
7693;SDS011;3889;48.162;11.510;2022-11-20T13:02:40;2.28;;;1.80;;
7693;SDS011;3889;48.162;11.510;2022-11-20T13:05:43;1.85;;;1.75;;
7693;SDS011;3889;48.162;11.510;2022-11-20T13:08:20;1.90;;;1.80;;
7693;SDS011;3889;48.162;11.510;2022-11-20T13:10:51;2.20;;;2.00;;
7693;SDS011;3889;48.162;11.510;2022-11-20T13:13:29;2.72;;;2.08;;
7693;SDS011;3889;48.162;11.510;2022-11-20T13:16:04;2.20;;;1.92;;
7693;SDS011;3889;48.162;11.510;2022-11-20T13:18:39;2.10;;;1.77;;
7693;SDS011;3889;48.162;11.510;2022-11-20T13:21:14;2.38;;;2.17;;
7693;SDS011;3889;48.162;11.510;2022-11-20T13:23:45;2.05;;;1.85;;
7693;SDS011;3889;48.162;11.510;2022-11-20T13:26:22;1.80;;;1.70;;
7693;SDS011;3889;48.162;11.510;2022-11-20T13:28:59;2.03;;;1.80;;
7693;SDS011;3889;48.162;11.510;2022-11-20T13:31:35;2.60;;;2.13;;
7693;SDS011;3889;48.162;11.510;2022-11-20T13:34:10;2.10;;;1.90;;
7693;SDS011;3889;48.162;11.510;2022-11-20T13:36:48;2.28;;;1.95;;
7693;SDS011;3889;48.162;11.510;2022-11-20T13:39:25;1.98;;;1.88;;
7693;SDS011;3889;48.162;11.510;2022-11-20T13:41:54;2.65;;;1.80;;
7693;SDS011;3889;48.162;11.510;2022-11-20T13:44:24;2.20;;;2.00;;
7693;SDS011;3889;48.162;11.510;2022-11-20T13:46:55;2.30;;;2.10;;
7693;SDS011;3889;48.162;11.510;2022-11-20T13:49:25;2.20;;;2.00;;
7693;SDS011;3889;48.162;11.510;2022-11-20T13:51:58;2.37;;;2.17;;
7693;SDS011;3889;48.162;11.510;2022-11-20T13:54:55;3.07;;;2.27;;
7693;SDS011;3889;48.162;11.510;2022-11-20T14:00:22;2.30;;;2.10;;
7693;SDS011;3889;48.162;11.510;2022-11-20T14:02:59;2.30;;;2.10;;
7693;SDS011;3889;48.162;11.510;2022-11-20T14:05:36;3.25;;;2.20;;
7693;SDS011;3889;48.162;11.510;2022-11-20T14:08:14;2.35;;;1.80;;
7693;SDS011;3889;48.162;11.510;2022-11-20T14:10:48;2.25;;;2.05;;
7693;SDS011;3889;48.162;11.510;2022-11-20T14:13:17;2.25;;;2.05;;
7693;SDS011;3889;48.162;11.510;2022-11-20T14:15:46;2.72;;;2.22;;
7693;SDS011;3889;48.162;11.510;2022-11-20T14:18:14;2.60;;;2.10;;
7693;SDS011;3889;48.162;11.510;2022-11-20T14:20:48;2.42;;;2.22;;
7693;SDS011;3889;48.162;11.510;2022-11-20T14:23:23;2.70;;;2.10;;
7693;SDS011;3889;48.162;11.510;2022-11-20T14:25:56;2.53;;;1.80;;
7693;SDS011;3889;48.162;11.510;2022-11-20T14:28:25;2.10;;;1.70;;
7693;SDS011;3889;48.162;11.510;2022-11-20T14:30:55;2.00;;;1.80;;
7693;SDS011;3889;48.162;11.510;2022-11-20T14:33:25;1.85;;;1.75;;
7693;SDS011;3889;48.162;11.510;2022-11-20T14:35:54;3.47;;;2.10;;
7693;SDS011;3889;48.162;11.510;2022-11-20T14:38:24;1.63;;;1.52;;
7693;SDS011;3889;48.162;11.510;2022-11-20T14:40:53;2.20;;;1.92;;
7693;SDS011;3889;48.162;11.510;2022-11-20T14:43:33;2.58;;;1.65;;
7693;SDS011;3889;48.162;11.510;2022-11-20T14:46:02;1.90;;;1.63;;
7693;SDS011;3889;48.162;11.510;2022-11-20T14:48:32;4.05;;;1.60;;
7693;SDS011;3889;48.162;11.510;2022-11-20T14:51:05;1.77;;;1.60;;
7693;SDS011;3889;48.162;11.510;2022-11-20T14:53:32;1.67;;;1.40;;
7693;SDS011;3889;48.162;11.510;2022-11-20T14:56:01;1.43;;;1.33;;
7693;SDS011;3889;48.162;11.510;2022-11-20T14:58:30;2.60;;;1.30;;
7693;SDS011;3889;48.162;11.510;2022-11-20T15:01:03;1.58;;;1.23;;
7693;SDS011;3889;48.162;11.510;2022-11-20T15:03:32;1.10;;;1.00;;
7693;SDS011;3889;48.162;11.510;2022-11-20T15:06:02;1.70;;;1.20;;
7693;SDS011;3889;48.162;11.510;2022-11-20T15:08:31;2.05;;;1.80;;
7693;SDS011;3889;48.162;11.510;2022-11-20T15:10:59;1.20;;;1.10;;
7693;SDS011;3889;48.162;11.510;2022-11-20T15:13:29;1.65;;;1.23;;
7693;SDS011;3889;48.162;11.510;2022-11-20T15:15:59;2.00;;;1.30;;
7693;SDS011;3889;48.162;11.510;2022-11-20T15:18:30;1.55;;;1.30;;
7693;SDS011;3889;48.162;11.510;2022-11-20T15:21:00;1.35;;;1.25;;
7693;SDS011;3889;48.162;11.510;2022-11-20T15:23:30;1.83;;;1.58;;
7693;SDS011;3889;48.162;11.510;2022-11-20T15:25:58;1.90;;;1.40;;
7693;SDS011;3889;48.162;11.510;2022-11-20T15:28:27;1.50;;;1.40;;
7693;SDS011;3889;48.162;11.510;2022-11-20T15:30:58;1.58;;;1.40;;
7693;SDS011;3889;48.162;11.510;2022-11-20T15:33:27;1.65;;;1.50;;